sensor_id;sensor_type;location;lat;lon;timestamp;P1;durP1;ratioP1;P2;durP2;ratioP2
54145;SDS011;65909;49.422;7.738;2023-01-15T00:00:56;1.80;;;1.55;;
54145;SDS011;65909;49.422;7.738;2023-01-15T00:03:21;1.92;;;1.80;;
54145;SDS011;65909;49.422;7.738;2023-01-15T00:05:47;2.15;;;1.70;;
54145;SDS011;65909;49.422;7.738;2023-01-15T00:08:12;2.40;;;1.60;;
54145;SDS011;65909;49.422;7.738;2023-01-15T00:10:37;2.47;;;1.83;;
54145;SDS011;65909;49.422;7.738;2023-01-15T00:13:03;2.03;;;1.80;;
54145;SDS011;65909;49.422;7.738;2023-01-15T00:15:28;2.03;;;1.80;;
54145;SDS011;65909;49.422;7.738;2023-01-15T00:17:53;2.17;;;1.70;;
54145;SDS011;65909;49.422;7.738;2023-01-15T00:20:19;1.95;;;1.75;;
54145;SDS011;65909;49.422;7.738;2023-01-15T00:22:44;3.05;;;1.77;;
54145;SDS011;65909;49.422;7.738;2023-01-15T00:25:09;2.28;;;2.00;;
54145;SDS011;65909;49.422;7.738;2023-01-15T00:27:53;2.45;;;2.17;;
54145;SDS011;65909;49.422;7.738;2023-01-15T00:30:19;3.03;;;2.72;;
54145;SDS011;65909;49.422;7.738;2023-01-15T00:32:44;2.58;;;2.20;;
54145;SDS011;65909;49.422;7.738;2023-01-15T00:35:14;2.75;;;2.55;;
54145;SDS011;65909;49.422;7.738;2023-01-15T00:37:41;2.85;;;2.45;;
54145;SDS011;65909;49.422;7.738;2023-01-15T00:40:06;3.05;;;2.75;;
54145;SDS011;65909;49.422;7.738;2023-01-15T00:42:32;3.15;;;2.80;;
54145;SDS011;65909;49.422;7.738;2023-01-15T00:44:58;7.50;;;2.55;;
54145;SDS011;65909;49.422;7.738;2023-01-15T00:47:23;3.00;;;2.13;;
54145;SDS011;65909;49.422;7.738;2023-01-15T00:49:49;2.40;;;2.20;;
54145;SDS011;65909;49.422;7.738;2023-01-15T00:52:15;3.05;;;2.75;;
54145;SDS011;65909;49.422;7.738;2023-01-15T00:54:40;2.38;;;2.17;;
54145;SDS011;65909;49.422;7.738;2023-01-15T00:57:06;4.40;;;2.00;;
54145;SDS011;65909;49.422;7.738;2023-01-15T00:59:31;2.05;;;1.85;;
54145;SDS011;65909;49.422;7.738;2023-01-15T01:01:57;2.45;;;2.10;;
54145;SDS011;65909;49.422;7.738;2023-01-15T01:04:22;4.07;;;2.17;;
54145;SDS011;65909;49.422;7.738;2023-01-15T01:06:47;1.95;;;1.67;;
54145;SDS011;65909;49.422;7.738;2023-01-15T01:09:13;3.78;;;1.70;;
54145;SDS011;65909;49.422;7.738;2023-01-15T01:11:39;2.10;;;1.90;;
54145;SDS011;65909;49.422;7.738;2023-01-15T01:14:05;2.67;;;2.03;;
54145;SDS011;65909;49.422;7.738;2023-01-15T01:16:32;3.65;;;2.05;;
54145;SDS011;65909;49.422;7.738;2023-01-15T01:19:03;1.92;;;1.35;;
54145;SDS011;65909;49.422;7.738;2023-01-15T01:21:30;1.42;;;1.27;;
54145;SDS011;65909;49.422;7.738;2023-01-15T01:23:57;0.90;;;0.90;;
54145;SDS011;65909;49.422;7.738;2023-01-15T01:26:23;0.70;;;0.70;;
54145;SDS011;65909;49.422;7.738;2023-01-15T01:28:49;0.70;;;0.70;;
54145;SDS011;65909;49.422;7.738;2023-01-15T01:31:15;0.73;;;0.70;;
54145;SDS011;65909;49.422;7.738;2023-01-15T01:33:41;0.98;;;0.80;;
54145;SDS011;65909;49.422;7.738;2023-01-15T01:36:07;0.98;;;0.70;;
54145;SDS011;65909;49.422;7.738;2023-01-15T01:38:32;2.05;;;0.70;;
54145;SDS011;65909;49.422;7.738;2023-01-15T01:40:58;0.95;;;0.88;;
54145;SDS011;65909;49.422;7.738;2023-01-15T01:43:24;1.25;;;0.60;;
54145;SDS011;65909;49.422;7.738;2023-01-15T01:45:51;2.00;;;1.00;;
54145;SDS011;65909;49.422;7.738;2023-01-15T01:48:17;1.02;;;0.80;;
54145;SDS011;65909;49.422;7.738;2023-01-15T01:50:46;1.10;;;0.90;;
54145;SDS011;65909;49.422;7.738;2023-01-15T01:53:15;1.05;;;0.80;;
54145;SDS011;65909;49.422;7.738;2023-01-15T01:55:44;0.90;;;0.80;;
54145;SDS011;65909;49.422;7.738;2023-01-15T01:58:10;1.00;;;0.65;;
54145;SDS011;65909;49.422;7.738;2023-01-15T02:00:38;0.75;;;0.75;;
54145;SDS011;65909;49.422;7.738;2023-01-15T02:03:08;0.75;;;0.63;;
54145;SDS011;65909;49.422;7.738;2023-01-15T02:05:37;1.88;;;0.75;;
54145;SDS011;65909;49.422;7.738;2023-01-15T02:08:05;0.63;;;0.63;;
54145;SDS011;65909;49.422;7.738;2023-01-15T02:10:31;0.50;;;0.50;;
54145;SDS011;65909;49.422;7.738;2023-01-15T02:12:59;0.40;;;0.40;;
54145;SDS011;65909;49.422;7.738;2023-01-15T02:15:31;0.50;;;0.50;;
54145;SDS011;65909;49.422;7.738;2023-01-15T02:18:05;0.40;;;0.40;;
54145;SDS011;65909;49.422;7.738;2023-01-15T02:20:44;0.60;;;0.60;;
54145;SDS011;65909;49.422;7.738;2023-01-15T02:23:37;0.40;;;0.40;;
54145;SDS011;65909;49.422;7.738;2023-01-15T02:26:19;0.50;;;0.50;;
54145;SDS011;65909;49.422;7.738;2023-01-15T02:28:50;0.40;;;0.40;;
54145;SDS011;65909;49.422;7.738;2023-01-15T02:31:26;0.63;;;0.60;;
54145;SDS011;65909;49.422;7.738;2023-01-15T02:34:14;0.50;;;0.50;;
54145;SDS011;65909;49.422;7.738;2023-01-15T02:36:47;4.13;;;0.60;;
54145;SDS011;65909;49.422;7.738;2023-01-15T02:39:17;0.45;;;0.45;;
54145;SDS011;65909;49.422;7.738;2023-01-15T02:41:46;0.68;;;0.52;;
54145;SDS011;65909;49.422;7.738;2023-01-15T02:44:16;0.50;;;0.50;;
54145;SDS011;65909;49.422;7.738;2023-01-15T02:46:45;0.45;;;0.45;;
54145;SDS011;65909;49.422;7.738;2023-01-15T02:49:13;0.52;;;0.52;;
54145;SDS011;65909;49.422;7.738;2023-01-15T02:51:46;0.93;;;0.50;;
54145;SDS011;65909;49.422;7.738;2023-01-15T02:54:16;1.00;;;0.60;;
54145;SDS011;65909;49.422;7.738;2023-01-15T02:56:44;0.50;;;0.50;;
54145;SDS011;65909;49.422;7.738;2023-01-15T02:59:14;0.60;;;0.43;;
54145;SDS011;65909;49.422;7.738;2023-01-15T03:01:55;0.40;;;0.40;;
54145;SDS011;65909;49.422;7.738;2023-01-15T03:04:27;0.50;;;0.50;;
54145;SDS011;65909;49.422;7.738;2023-01-15T03:07:11;0.50;;;0.50;;
54145;SDS011;65909;49.422;7.738;2023-01-15T03:09:55;0.60;;;0.60;;
54145;SDS011;65909;49.422;7.738;2023-01-15T03:15:19;0.40;;;0.40;;
54145;SDS011;65909;49.422;7.738;2023-01-15T03:18:03;1.63;;;0.75;;
54145;SDS011;65909;49.422;7.738;2023-01-15T03:20:31;0.50;;;0.50;;
54145;SDS011;65909;49.422;7.738;2023-01-15T03:22:58;0.50;;;0.50;;
54145;SDS011;65909;49.422;7.738;2023-01-15T03:25:34;0.50;;;0.50;;
54145;SDS011;65909;49.422;7.738;2023-01-15T03:28:06;0.47;;;0.47;;
54145;SDS011;65909;49.422;7.738;2023-01-15T03:30:34;0.50;;;0.50;;
54145;SDS011;65909;49.422;7.738;2023-01-15T03:32:59;0.47;;;0.47;;
54145;SDS011;65909;49.422;7.738;2023-01-15T03:38:08;0.65;;;0.65;;
54145;SDS011;65909;49.422;7.738;2023-01-15T03:40:34;0.60;;;0.60;;
54145;SDS011;65909;49.422;7.738;2023-01-15T03:43:03;1.10;;;0.50;;
54145;SDS011;65909;49.422;7.738;2023-01-15T03:45:52;0.50;;;0.50;;
54145;SDS011;65909;49.422;7.738;2023-01-15T03:48:30;0.50;;;0.50;;
54145;SDS011;65909;49.422;7.738;2023-01-15T03:51:07;0.60;;;0.50;;
54145;SDS011;65909;49.422;7.738;2023-01-15T03:53:42;2.38;;;0.60;;
54145;SDS011;65909;49.422;7.738;2023-01-15T03:56:19;0.43;;;0.43;;
54145;SDS011;65909;49.422;7.738;2023-01-15T04:01:29;0.40;;;0.40;;
54145;SDS011;65909;49.422;7.738;2023-01-15T04:03:58;0.50;;;0.50;;
54145;SDS011;65909;49.422;7.738;2023-01-15T04:06:26;2.83;;;0.57;;
54145;SDS011;65909;49.422;7.738;2023-01-15T04:08:54;0.55;;;0.55;;
54145;SDS011;65909;49.422;7.738;2023-01-15T04:11:22;0.57;;;0.50;;
54145;SDS011;65909;49.422;7.738;2023-01-15T04:13:49;0.70;;;0.50;;
54145;SDS011;65909;49.422;7.738;2023-01-15T04:16:18;1.75;;;0.57;;
54145;SDS011;65909;49.422;7.738;2023-01-15T04:18:58;0.70;;;0.50;;
54145;SDS011;65909;49.422;7.738;2023-01-15T04:21:23;0.85;;;0.60;;
54145;SDS011;65909;49.422;7.738;2023-01-15T04:23:49;0.52;;;0.52;;
54145;SDS011;65909;49.422;7.738;2023-01-15T04:26:15;1.95;;;0.80;;
54145;SDS011;65909;49.422;7.738;2023-01-15T04:28:41;0.40;;;0.40;;
54145;SDS011;65909;49.422;7.738;2023-01-15T04:31:06;0.50;;;0.50;;
54145;SDS011;65909;49.422;7.738;2023-01-15T04:33:32;0.60;;;0.60;;
54145;SDS011;65909;49.422;7.738;2023-01-15T04:35:58;0.50;;;0.50;;
54145;SDS011;65909;49.422;7.738;2023-01-15T04:38:24;0.50;;;0.50;;
54145;SDS011;65909;49.422;7.738;2023-01-15T04:40:50;0.70;;;0.70;;
54145;SDS011;65909;49.422;7.738;2023-01-15T04:43:34;0.50;;;0.50;;
54145;SDS011;65909;49.422;7.738;2023-01-15T04:46:21;0.65;;;0.65;;
54145;SDS011;65909;49.422;7.738;2023-01-15T04:48:48;1.27;;;0.63;;
54145;SDS011;65909;49.422;7.738;2023-01-15T04:51:13;0.52;;;0.52;;
54145;SDS011;65909;49.422;7.738;2023-01-15T04:53:39;0.60;;;0.60;;
54145;SDS011;65909;49.422;7.738;2023-01-15T04:56:04;0.50;;;0.50;;
54145;SDS011;65909;49.422;7.738;2023-01-15T04:58:31;1.48;;;0.80;;
54145;SDS011;65909;49.422;7.738;2023-01-15T05:00:56;0.60;;;0.60;;
54145;SDS011;65909;49.422;7.738;2023-01-15T05:03:24;3.80;;;0.50;;
54145;SDS011;65909;49.422;7.738;2023-01-15T05:05:50;0.50;;;0.50;;
54145;SDS011;65909;49.422;7.738;2023-01-15T05:08:16;0.68;;;0.68;;
54145;SDS011;65909;49.422;7.738;2023-01-15T05:10:41;0.50;;;0.50;;
54145;SDS011;65909;49.422;7.738;2023-01-15T05:13:06;0.57;;;0.57;;
54145;SDS011;65909;49.422;7.738;2023-01-15T05:15:32;1.38;;;0.68;;
54145;SDS011;65909;49.422;7.738;2023-01-15T05:17:57;0.60;;;0.60;;
54145;SDS011;65909;49.422;7.738;2023-01-15T05:20:22;0.50;;;0.50;;
54145;SDS011;65909;49.422;7.738;2023-01-15T05:22:48;0.60;;;0.60;;
54145;SDS011;65909;49.422;7.738;2023-01-15T05:25:13;1.27;;;0.60;;
54145;SDS011;65909;49.422;7.738;2023-01-15T05:27:39;3.13;;;0.90;;
54145;SDS011;65909;49.422;7.738;2023-01-15T05:30:05;0.60;;;0.60;;
54145;SDS011;65909;49.422;7.738;2023-01-15T05:32:30;0.70;;;0.70;;
54145;SDS011;65909;49.422;7.738;2023-01-15T05:34:56;0.70;;;0.70;;
54145;SDS011;65909;49.422;7.738;2023-01-15T05:37:21;1.30;;;0.50;;
54145;SDS011;65909;49.422;7.738;2023-01-15T05:39:46;0.60;;;0.60;;
54145;SDS011;65909;49.422;7.738;2023-01-15T05:42:12;1.27;;;0.70;;
54145;SDS011;65909;49.422;7.738;2023-01-15T05:44:37;0.70;;;0.70;;
54145;SDS011;65909;49.422;7.738;2023-01-15T05:47:02;0.57;;;0.57;;
54145;SDS011;65909;49.422;7.738;2023-01-15T05:49:30;0.98;;;0.50;;
54145;SDS011;65909;49.422;7.738;2023-01-15T05:51:56;0.50;;;0.50;;
54145;SDS011;65909;49.422;7.738;2023-01-15T05:54:25;1.42;;;0.65;;
54145;SDS011;65909;49.422;7.738;2023-01-15T05:56:52;0.50;;;0.50;;
54145;SDS011;65909;49.422;7.738;2023-01-15T05:59:19;0.73;;;0.60;;
54145;SDS011;65909;49.422;7.738;2023-01-15T06:01:47;0.60;;;0.50;;
54145;SDS011;65909;49.422;7.738;2023-01-15T06:04:13;0.60;;;0.57;;
54145;SDS011;65909;49.422;7.738;2023-01-15T06:06:39;0.70;;;0.70;;
54145;SDS011;65909;49.422;7.738;2023-01-15T06:09:06;1.08;;;0.65;;
54145;SDS011;65909;49.422;7.738;2023-01-15T06:11:31;0.50;;;0.50;;
54145;SDS011;65909;49.422;7.738;2023-01-15T06:13:57;0.55;;;0.50;;
54145;SDS011;65909;49.422;7.738;2023-01-15T06:16:23;0.90;;;0.50;;
54145;SDS011;65909;49.422;7.738;2023-01-15T06:18:48;1.23;;;0.60;;
54145;SDS011;65909;49.422;7.738;2023-01-15T06:21:14;2.75;;;1.15;;
54145;SDS011;65909;49.422;7.738;2023-01-15T06:23:39;0.50;;;0.50;;
54145;SDS011;65909;49.422;7.738;2023-01-15T06:26:06;0.50;;;0.50;;
54145;SDS011;65909;49.422;7.738;2023-01-15T06:28:34;0.60;;;0.60;;
54145;SDS011;65909;49.422;7.738;2023-01-15T06:31:03;0.43;;;0.43;;
54145;SDS011;65909;49.422;7.738;2023-01-15T06:33:30;0.50;;;0.50;;
54145;SDS011;65909;49.422;7.738;2023-01-15T06:35:55;0.50;;;0.50;;
54145;SDS011;65909;49.422;7.738;2023-01-15T06:38:20;0.60;;;0.60;;
54145;SDS011;65909;49.422;7.738;2023-01-15T06:40:46;0.80;;;0.47;;
54145;SDS011;65909;49.422;7.738;2023-01-15T06:43:11;0.43;;;0.43;;
54145;SDS011;65909;49.422;7.738;2023-01-15T06:45:55;0.70;;;0.60;;
54145;SDS011;65909;49.422;7.738;2023-01-15T06:48:30;0.40;;;0.40;;
54145;SDS011;65909;49.422;7.738;2023-01-15T06:50:57;0.50;;;0.50;;
54145;SDS011;65909;49.422;7.738;2023-01-15T06:53:23;1.75;;;0.50;;
54145;SDS011;65909;49.422;7.738;2023-01-15T06:55:49;0.50;;;0.50;;
54145;SDS011;65909;49.422;7.738;2023-01-15T06:58:14;0.50;;;0.50;;
54145;SDS011;65909;49.422;7.738;2023-01-15T07:00:40;0.50;;;0.50;;
54145;SDS011;65909;49.422;7.738;2023-01-15T07:03:09;1.13;;;0.60;;
54145;SDS011;65909;49.422;7.738;2023-01-15T07:05:38;0.50;;;0.50;;
54145;SDS011;65909;49.422;7.738;2023-01-15T07:08:03;2.05;;;0.70;;
54145;SDS011;65909;49.422;7.738;2023-01-15T07:10:29;1.38;;;0.75;;
54145;SDS011;65909;49.422;7.738;2023-01-15T07:12:54;1.27;;;0.70;;
54145;SDS011;65909;49.422;7.738;2023-01-15T07:15:19;1.13;;;0.60;;
54145;SDS011;65909;49.422;7.738;2023-01-15T07:17:45;2.30;;;0.70;;
54145;SDS011;65909;49.422;7.738;2023-01-15T07:20:10;0.50;;;0.50;;
54145;SDS011;65909;49.422;7.738;2023-01-15T07:22:36;1.00;;;0.60;;
54145;SDS011;65909;49.422;7.738;2023-01-15T07:25:01;1.60;;;0.60;;
54145;SDS011;65909;49.422;7.738;2023-01-15T07:27:27;1.67;;;0.70;;
54145;SDS011;65909;49.422;7.738;2023-01-15T07:29:52;0.60;;;0.60;;
54145;SDS011;65909;49.422;7.738;2023-01-15T07:32:18;0.60;;;0.60;;
54145;SDS011;65909;49.422;7.738;2023-01-15T07:34:43;0.60;;;0.60;;
54145;SDS011;65909;49.422;7.738;2023-01-15T07:37:09;0.73;;;0.73;;
54145;SDS011;65909;49.422;7.738;2023-01-15T07:39:35;0.60;;;0.60;;
54145;SDS011;65909;49.422;7.738;2023-01-15T07:42:00;1.05;;;0.70;;
54145;SDS011;65909;49.422;7.738;2023-01-15T07:44:44;0.50;;;0.50;;
54145;SDS011;65909;49.422;7.738;2023-01-15T07:47:29;0.70;;;0.70;;
54145;SDS011;65909;49.422;7.738;2023-01-15T07:50:17;0.77;;;0.77;;
54145;SDS011;65909;49.422;7.738;2023-01-15T07:52:44;0.60;;;0.60;;
54145;SDS011;65909;49.422;7.738;2023-01-15T07:55:10;1.77;;;0.75;;
54145;SDS011;65909;49.422;7.738;2023-01-15T07:57:39;1.33;;;0.70;;
54145;SDS011;65909;49.422;7.738;2023-01-15T08:00:06;0.73;;;0.73;;
54145;SDS011;65909;49.422;7.738;2023-01-15T08:02:37;0.80;;;0.80;;
54145;SDS011;65909;49.422;7.738;2023-01-15T08:05:02;0.70;;;0.70;;
54145;SDS011;65909;49.422;7.738;2023-01-15T08:07:28;2.65;;;1.23;;
54145;SDS011;65909;49.422;7.738;2023-01-15T08:09:54;1.67;;;0.85;;
54145;SDS011;65909;49.422;7.738;2023-01-15T08:12:19;1.27;;;0.90;;
54145;SDS011;65909;49.422;7.738;2023-01-15T08:15:03;1.33;;;0.80;;
54145;SDS011;65909;49.422;7.738;2023-01-15T08:17:39;1.17;;;0.90;;
54145;SDS011;65909;49.422;7.738;2023-01-15T08:20:07;2.58;;;1.88;;
54145;SDS011;65909;49.422;7.738;2023-01-15T08:22:35;1.42;;;1.08;;
54145;SDS011;65909;49.422;7.738;2023-01-15T08:25:02;2.83;;;1.25;;
54145;SDS011;65909;49.422;7.738;2023-01-15T08:27:28;2.28;;;1.27;;
54145;SDS011;65909;49.422;7.738;2023-01-15T08:29:54;3.35;;;1.10;;
54145;SDS011;65909;49.422;7.738;2023-01-15T08:32:20;1.30;;;1.20;;
54145;SDS011;65909;49.422;7.738;2023-01-15T08:34:46;2.38;;;0.95;;
54145;SDS011;65909;49.422;7.738;2023-01-15T08:37:11;1.60;;;0.90;;
54145;SDS011;65909;49.422;7.738;2023-01-15T08:39:37;2.28;;;0.90;;
54145;SDS011;65909;49.422;7.738;2023-01-15T08:42:02;1.00;;;0.90;;
54145;SDS011;65909;49.422;7.738;2023-01-15T08:44:27;0.80;;;0.80;;
54145;SDS011;65909;49.422;7.738;2023-01-15T08:46:53;0.98;;;0.82;;
54145;SDS011;65909;49.422;7.738;2023-01-15T08:49:19;1.10;;;0.80;;
54145;SDS011;65909;49.422;7.738;2023-01-15T08:51:44;1.60;;;1.23;;
54145;SDS011;65909;49.422;7.738;2023-01-15T08:54:14;2.42;;;1.13;;
54145;SDS011;65909;49.422;7.738;2023-01-15T08:56:40;1.05;;;0.85;;
54145;SDS011;65909;49.422;7.738;2023-01-15T08:59:05;1.20;;;1.02;;
54145;SDS011;65909;49.422;7.738;2023-01-15T09:01:34;0.80;;;0.80;;
54145;SDS011;65909;49.422;7.738;2023-01-15T09:03:59;0.60;;;0.60;;
54145;SDS011;65909;49.422;7.738;2023-01-15T09:06:25;0.80;;;0.80;;
54145;SDS011;65909;49.422;7.738;2023-01-15T09:08:51;1.10;;;0.80;;
54145;SDS011;65909;49.422;7.738;2023-01-15T09:11:16;0.80;;;0.80;;
54145;SDS011;65909;49.422;7.738;2023-01-15T09:13:42;1.00;;;1.00;;
54145;SDS011;65909;49.422;7.738;2023-01-15T09:16:07;0.80;;;0.80;;
54145;SDS011;65909;49.422;7.738;2023-01-15T09:18:35;0.60;;;0.60;;
54145;SDS011;65909;49.422;7.738;2023-01-15T09:21:01;0.70;;;0.70;;
54145;SDS011;65909;49.422;7.738;2023-01-15T09:23:27;1.73;;;0.80;;
54145;SDS011;65909;49.422;7.738;2023-01-15T09:25:53;0.80;;;0.80;;
54145;SDS011;65909;49.422;7.738;2023-01-15T09:28:20;0.60;;;0.60;;
54145;SDS011;65909;49.422;7.738;2023-01-15T09:30:46;0.80;;;0.80;;
54145;SDS011;65909;49.422;7.738;2023-01-15T09:33:11;0.88;;;0.88;;
54145;SDS011;65909;49.422;7.738;2023-01-15T09:35:36;3.75;;;1.02;;
54145;SDS011;65909;49.422;7.738;2023-01-15T09:38:02;0.80;;;0.80;;
54145;SDS011;65909;49.422;7.738;2023-01-15T09:40:45;0.90;;;0.90;;
54145;SDS011;65909;49.422;7.738;2023-01-15T09:43:28;1.30;;;1.00;;
54145;SDS011;65909;49.422;7.738;2023-01-15T09:46:11;2.05;;;0.85;;
54145;SDS011;65909;49.422;7.738;2023-01-15T09:57:12;1.15;;;0.85;;
54145;SDS011;65909;49.422;7.738;2023-01-15T09:59:40;0.80;;;0.80;;
54145;SDS011;65909;49.422;7.738;2023-01-15T10:02:15;1.33;;;0.80;;
54145;SDS011;65909;49.422;7.738;2023-01-15T10:04:48;1.58;;;0.90;;
54145;SDS011;65909;49.422;7.738;2023-01-15T10:07:21;1.08;;;0.73;;
54145;SDS011;65909;49.422;7.738;2023-01-15T10:10:09;0.70;;;0.70;;
54145;SDS011;65909;49.422;7.738;2023-01-15T10:12:37;1.38;;;0.80;;
54145;SDS011;65909;49.422;7.738;2023-01-15T10:15:26;1.13;;;0.82;;
54145;SDS011;65909;49.422;7.738;2023-01-15T10:18:04;1.58;;;0.90;;
54145;SDS011;65909;49.422;7.738;2023-01-15T10:29:13;1.05;;;0.95;;
54145;SDS011;65909;49.422;7.738;2023-01-15T10:32:08;0.70;;;0.70;;
54145;SDS011;65909;49.422;7.738;2023-01-15T10:35:06;2.17;;;1.00;;
54145;SDS011;65909;49.422;7.738;2023-01-15T10:37:50;0.70;;;0.70;;
54145;SDS011;65909;49.422;7.738;2023-01-15T10:40:37;1.25;;;1.15;;
54145;SDS011;65909;49.422;7.738;2023-01-15T10:43:45;0.70;;;0.70;;
54145;SDS011;65909;49.422;7.738;2023-01-15T10:46:26;0.93;;;0.85;;
54145;SDS011;65909;49.422;7.738;2023-01-15T10:49:03;0.80;;;0.80;;
54145;SDS011;65909;49.422;7.738;2023-01-15T10:51:51;1.00;;;0.80;;
54145;SDS011;65909;49.422;7.738;2023-01-15T10:54:35;0.70;;;0.70;;
54145;SDS011;65909;49.422;7.738;2023-01-15T10:57:09;1.60;;;0.90;;
54145;SDS011;65909;49.422;7.738;2023-01-15T10:59:58;0.68;;;0.68;;
54145;SDS011;65909;49.422;7.738;2023-01-15T11:04:56;1.10;;;0.90;;
54145;SDS011;65909;49.422;7.738;2023-01-15T11:07:23;1.65;;;0.90;;
54145;SDS011;65909;49.422;7.738;2023-01-15T11:09:58;1.85;;;0.93;;
54145;SDS011;65909;49.422;7.738;2023-01-15T11:12:27;1.77;;;1.00;;
54145;SDS011;65909;49.422;7.738;2023-01-15T11:15:12;2.33;;;0.80;;
54145;SDS011;65909;49.422;7.738;2023-01-15T11:18:08;2.25;;;0.73;;
54145;SDS011;65909;49.422;7.738;2023-01-15T11:20:56;3.20;;;1.00;;
54145;SDS011;65909;49.422;7.738;2023-01-15T11:23:21;1.45;;;0.98;;
54145;SDS011;65909;49.422;7.738;2023-01-15T11:25:56;2.33;;;0.80;;
54145;SDS011;65909;49.422;7.738;2023-01-15T11:28:34;0.88;;;0.75;;
54145;SDS011;65909;49.422;7.738;2023-01-15T11:31:05;0.70;;;0.70;;
54145;SDS011;65909;49.422;7.738;2023-01-15T11:33:32;1.20;;;0.95;;
54145;SDS011;65909;49.422;7.738;2023-01-15T11:35:59;0.98;;;0.88;;
54145;SDS011;65909;49.422;7.738;2023-01-15T11:38:30;1.15;;;0.90;;
54145;SDS011;65909;49.422;7.738;2023-01-15T11:41:15;1.20;;;1.00;;
54145;SDS011;65909;49.422;7.738;2023-01-15T11:44:10;3.35;;;0.98;;
54145;SDS011;65909;49.422;7.738;2023-01-15T11:46:55;1.65;;;1.30;;
54145;SDS011;65909;49.422;7.738;2023-01-15T11:49:39;1.27;;;0.90;;
54145;SDS011;65909;49.422;7.738;2023-01-15T11:52:32;1.77;;;0.90;;
54145;SDS011;65909;49.422;7.738;2023-01-15T11:55:00;3.13;;;1.10;;
54145;SDS011;65909;49.422;7.738;2023-01-15T11:57:27;1.10;;;0.80;;
54145;SDS011;65909;49.422;7.738;2023-01-15T11:59:56;2.67;;;1.00;;
54145;SDS011;65909;49.422;7.738;2023-01-15T12:07:12;2.80;;;1.27;;
54145;SDS011;65909;49.422;7.738;2023-01-15T12:09:42;1.92;;;0.95;;
54145;SDS011;65909;49.422;7.738;2023-01-15T12:25:50;1.58;;;0.88;;
54145;SDS011;65909;49.422;7.738;2023-01-15T12:28:43;1.90;;;0.80;;
54145;SDS011;65909;49.422;7.738;2023-01-15T12:31:14;2.05;;;1.00;;
54145;SDS011;65909;49.422;7.738;2023-01-15T12:36:30;2.15;;;1.00;;
54145;SDS011;65909;49.422;7.738;2023-01-15T12:39:13;1.42;;;0.90;;
54145;SDS011;65909;49.422;7.738;2023-01-15T12:41:44;3.08;;;0.90;;
54145;SDS011;65909;49.422;7.738;2023-01-15T12:44:41;1.60;;;1.00;;
54145;SDS011;65909;49.422;7.738;2023-01-15T12:47:39;3.00;;;1.00;;
54145;SDS011;65909;49.422;7.738;2023-01-15T12:52:51;1.23;;;0.90;;
54145;SDS011;65909;49.422;7.738;2023-01-15T12:55:25;1.25;;;0.80;;
54145;SDS011;65909;49.422;7.738;2023-01-15T12:57:58;1.95;;;0.80;;
54145;SDS011;65909;49.422;7.738;2023-01-15T13:00:36;2.33;;;0.85;;
54145;SDS011;65909;49.422;7.738;2023-01-15T13:03:18;1.20;;;0.90;;
54145;SDS011;65909;49.422;7.738;2023-01-15T13:05:53;1.73;;;1.08;;
54145;SDS011;65909;49.422;7.738;2023-01-15T13:08:29;1.10;;;0.75;;
54145;SDS011;65909;49.422;7.738;2023-01-15T13:11:01;1.65;;;1.10;;
54145;SDS011;65909;49.422;7.738;2023-01-15T13:13:31;2.20;;;0.85;;
54145;SDS011;65909;49.422;7.738;2023-01-15T13:21:11;0.88;;;0.80;;
54145;SDS011;65909;49.422;7.738;2023-01-15T13:24:01;4.20;;;1.15;;
54145;SDS011;65909;49.422;7.738;2023-01-15T13:26:59;3.00;;;0.90;;
54145;SDS011;65909;49.422;7.738;2023-01-15T13:32:28;6.60;;;1.75;;
54145;SDS011;65909;49.422;7.738;2023-01-15T13:35:10;5.38;;;1.17;;
54145;SDS011;65909;49.422;7.738;2023-01-15T13:37:45;1.55;;;1.05;;
54145;SDS011;65909;49.422;7.738;2023-01-15T13:42:48;2.25;;;0.93;;
54145;SDS011;65909;49.422;7.738;2023-01-15T13:47:43;1.63;;;0.93;;
54145;SDS011;65909;49.422;7.738;2023-01-15T13:50:15;3.65;;;1.23;;
54145;SDS011;65909;49.422;7.738;2023-01-15T13:52:47;1.50;;;1.10;;
54145;SDS011;65909;49.422;7.738;2023-01-15T13:55:26;3.25;;;1.00;;
54145;SDS011;65909;49.422;7.738;2023-01-15T13:57:56;2.42;;;0.95;;
54145;SDS011;65909;49.422;7.738;2023-01-15T14:00:26;1.80;;;1.00;;
54145;SDS011;65909;49.422;7.738;2023-01-15T14:03:22;4.25;;;1.10;;
54145;SDS011;65909;49.422;7.738;2023-01-15T14:06:08;2.05;;;0.95;;
54145;SDS011;65909;49.422;7.738;2023-01-15T14:08:40;4.70;;;1.15;;
54145;SDS011;65909;49.422;7.738;2023-01-15T14:14:33;3.30;;;1.35;;
54145;SDS011;65909;49.422;7.738;2023-01-15T14:22:49;1.77;;;0.80;;
54145;SDS011;65909;49.422;7.738;2023-01-15T14:36:54;4.03;;;0.95;;
54145;SDS011;65909;49.422;7.738;2023-01-15T14:39:28;3.53;;;1.10;;
54145;SDS011;65909;49.422;7.738;2023-01-15T14:42:00;3.17;;;1.17;;
54145;SDS011;65909;49.422;7.738;2023-01-15T14:44:44;4.22;;;1.20;;
54145;SDS011;65909;49.422;7.738;2023-01-15T14:47:20;2.47;;;0.95;;
54145;SDS011;65909;49.422;7.738;2023-01-15T14:50:02;2.13;;;1.05;;
54145;SDS011;65909;49.422;7.738;2023-01-15T14:55:38;3.03;;;1.00;;
54145;SDS011;65909;49.422;7.738;2023-01-15T15:01:01;2.90;;;1.70;;
54145;SDS011;65909;49.422;7.738;2023-01-15T15:03:37;3.22;;;1.33;;
54145;SDS011;65909;49.422;7.738;2023-01-15T15:06:09;5.28;;;1.38;;
54145;SDS011;65909;49.422;7.738;2023-01-15T15:08:36;2.40;;;1.02;;
54145;SDS011;65909;49.422;7.738;2023-01-15T15:11:05;4.45;;;1.10;;
54145;SDS011;65909;49.422;7.738;2023-01-15T15:14:03;4.22;;;1.15;;
54145;SDS011;65909;49.422;7.738;2023-01-15T15:16:30;1.73;;;1.20;;
54145;SDS011;65909;49.422;7.738;2023-01-15T15:19:02;3.17;;;1.10;;
54145;SDS011;65909;49.422;7.738;2023-01-15T15:21:39;4.53;;;1.15;;
54145;SDS011;65909;49.422;7.738;2023-01-15T15:26:55;5.03;;;1.17;;
54145;SDS011;65909;49.422;7.738;2023-01-15T15:29:20;4.85;;;1.10;;
54145;SDS011;65909;49.422;7.738;2023-01-15T15:31:51;3.75;;;1.08;;
54145;SDS011;65909;49.422;7.738;2023-01-15T15:37:10;2.80;;;1.10;;
54145;SDS011;65909;49.422;7.738;2023-01-15T15:39:52;2.78;;;1.10;;
54145;SDS011;65909;49.422;7.738;2023-01-15T15:42:20;7.07;;;1.20;;
54145;SDS011;65909;49.422;7.738;2023-01-15T15:45:11;4.70;;;1.00;;
54145;SDS011;65909;49.422;7.738;2023-01-15T15:53:49;3.95;;;1.02;;
54145;SDS011;65909;49.422;7.738;2023-01-15T15:56:15;6.10;;;1.48;;
54145;SDS011;65909;49.422;7.738;2023-01-15T15:58:41;4.45;;;1.30;;
54145;SDS011;65909;49.422;7.738;2023-01-15T16:01:10;3.33;;;1.05;;
54145;SDS011;65909;49.422;7.738;2023-01-15T16:03:43;2.55;;;1.20;;
54145;SDS011;65909;49.422;7.738;2023-01-15T16:06:21;3.78;;;1.20;;
54145;SDS011;65909;49.422;7.738;2023-01-15T16:08:51;2.85;;;1.17;;
54145;SDS011;65909;49.422;7.738;2023-01-15T16:11:25;2.35;;;1.30;;
54145;SDS011;65909;49.422;7.738;2023-01-15T16:13:52;2.70;;;1.10;;
54145;SDS011;65909;49.422;7.738;2023-01-15T16:16:20;2.20;;;1.13;;
54145;SDS011;65909;49.422;7.738;2023-01-15T16:18:49;3.05;;;1.02;;
54145;SDS011;65909;49.422;7.738;2023-01-15T16:21:18;2.50;;;1.10;;
54145;SDS011;65909;49.422;7.738;2023-01-15T16:23:57;4.88;;;1.33;;
54145;SDS011;65909;49.422;7.738;2023-01-15T16:26:30;4.93;;;1.52;;
54145;SDS011;65909;49.422;7.738;2023-01-15T16:29:05;2.60;;;1.35;;
54145;SDS011;65909;49.422;7.738;2023-01-15T16:31:42;1.98;;;1.20;;
54145;SDS011;65909;49.422;7.738;2023-01-15T16:34:10;2.22;;;1.27;;
54145;SDS011;65909;49.422;7.738;2023-01-15T16:42:03;2.38;;;1.73;;
54145;SDS011;65909;49.422;7.738;2023-01-15T16:44:34;5.38;;;1.42;;
54145;SDS011;65909;49.422;7.738;2023-01-15T16:47:04;2.72;;;1.10;;
54145;SDS011;65909;49.422;7.738;2023-01-15T16:49:31;2.67;;;1.02;;
54145;SDS011;65909;49.422;7.738;2023-01-15T16:51:58;6.20;;;1.20;;
54145;SDS011;65909;49.422;7.738;2023-01-15T16:56:53;2.60;;;1.45;;
54145;SDS011;65909;49.422;7.738;2023-01-15T17:07:15;2.72;;;0.90;;
54145;SDS011;65909;49.422;7.738;2023-01-15T17:09:42;2.78;;;1.10;;